Time;durP1;ratioP1;P1;durP2;ratioP2;P2;SDS_P1;SDS_P2;PMS_P1;PMS_P2;Temp;Humidity;BMP_temperature;BMP_pressure;BME280_temperature;BME280_humidity;BME280_pressure;Samples;Min_cycle;Max_cycle;Signal;HPM_P1;HPM_P2
2022/08/02 00:01:21;;;;;;;;;;;13.10;99.90;;;;;;5052464;28;19916;-46
2022/08/02 00:03:47;;;;;;;;;;;13.20;99.90;;;;;;5051594;28;20015;-47
2022/08/02 00:06:12;;;;;;;;;;;13.10;99.90;;;;;;5052005;28;19925;-47
2022/08/02 00:08:38;;;;;;;;;;;13.10;99.90;;;;;;5051998;28;20168;-48
2022/08/02 00:11:03;;;;;;;;;;;13.00;99.90;;;;;;5052345;28;19974;-45
2022/08/02 00:13:29;;;;;;;;;;;12.90;99.90;;;;;;5051232;28;19964;-46
2022/08/02 00:15:54;;;;;;;;;;;12.80;99.90;;;;;;5051755;28;19931;-46
2022/08/02 00:18:20;;;;;;;;;;;12.90;99.90;;;;;;5052002;28;20305;-45
2022/08/02 00:20:45;;;;;;;;;;;12.80;99.90;;;;;;5052532;28;20352;-46
2022/08/02 00:23:11;;;;;;;;;;;12.80;99.90;;;;;;5052324;28;19963;-48
2022/08/02 00:25:36;;;;;;;;;;;12.80;99.90;;;;;;5051143;28;20313;-46
2022/08/02 00:28:02;;;;;;;;;;;12.80;99.90;;;;;;5051585;28;20453;-45
2022/08/02 00:30:27;;;;;;;;;;;12.80;99.90;;;;;;5051988;28;19920;-49
2022/08/02 00:32:53;;;;;;;;;;;12.80;99.90;;;;;;5051206;28;20286;-46
2022/08/02 00:35:18;;;;;;;;;;;12.70;99.90;;;;;;5052835;28;19921;-47
2022/08/02 00:37:44;;;;;;;;;;;12.70;99.90;;;;;;5051767;28;19976;-46
2022/08/02 00:40:09;;;;;;;;;;;12.70;99.90;;;;;;5051607;28;20409;-46
2022/08/02 00:42:35;;;;;;;;;;;12.70;99.90;;;;;;5051835;28;20006;-45
2022/08/02 00:45:01;;;;;;;;;;;12.80;99.90;;;;;;5051524;28;20067;-46
2022/08/02 00:47:26;;;;;;;;;;;12.80;99.90;;;;;;5051825;28;19939;-45
2022/08/02 00:49:51;;;;;;;;;;;12.80;99.90;;;;;;5051575;28;19917;-46
2022/08/02 00:52:17;;;;;;;;;;;12.80;99.90;;;;;;5051259;28;20021;-47
2022/08/02 00:54:42;;;;;;;;;;;12.80;99.90;;;;;;5050863;28;19921;-45
2022/08/02 00:57:08;;;;;;;;;;;12.70;99.90;;;;;;5051611;28;19952;-46
2022/08/02 00:59:33;;;;;;;;;;;12.70;99.90;;;;;;5051615;28;19920;-46
2022/08/02 01:01:59;;;;;;;;;;;12.70;99.90;;;;;;5051597;28;19978;-46
2022/08/02 01:04:25;;;;;;;;;;;12.60;99.90;;;;;;5051026;28;19916;-46
2022/08/02 01:06:51;;;;;;;;;;;12.60;99.90;;;;;;5050895;28;19974;-47
2022/08/02 01:09:16;;;;;;;;;;;12.50;99.90;;;;;;5050844;28;19921;-46
2022/08/02 01:11:42;;;;;;;;;;;12.50;99.90;;;;;;5051071;28;19923;-46
2022/08/02 01:14:09;;;;;;;;;;;12.50;99.90;;;;;;5050304;28;19935;-45
2022/08/02 01:16:52;;;;;;;;;;;12.50;99.90;;;;;;5050134;28;20294;-46
2022/08/02 01:19:18;;;;;;;;;;;12.50;99.90;;;;;;5050177;28;19921;-46
2022/08/02 01:22:09;;;;;;;;;;;12.50;99.90;;;;;;5050724;28;19920;-45
2022/08/02 01:24:35;;;;;;;;;;;12.50;99.90;;;;;;5024836;28;20020;-46
2022/08/02 01:27:00;;;;;;;;;;;12.50;99.90;;;;;;5050681;28;19964;-46
2022/08/02 01:29:30;;;;;;;;;;;12.50;99.90;;;;;;5050448;28;19916;-46
2022/08/02 01:31:59;;;;;;;;;;;12.50;99.90;;;;;;5050857;28;20427;-46
2022/08/02 01:34:36;;;;;;;;;;;12.40;99.90;;;;;;5050338;28;19917;-45
2022/08/02 01:37:07;;;;;;;;;;;12.40;99.90;;;;;;5050475;28;19921;-45
2022/08/02 01:39:34;;;;;;;;;;;12.40;99.90;;;;;;5050361;28;20003;-46
2022/08/02 01:42:00;;;;;;;;;;;12.40;99.90;;;;;;5050237;28;19917;-46
2022/08/02 01:44:27;;;;;;;;;;;12.40;99.90;;;;;;5048909;28;19924;-45
2022/08/02 01:46:55;;;;;;;;;;;12.30;99.90;;;;;;5049872;28;19916;-46
2022/08/02 01:49:22;;;;;;;;;;;12.10;99.90;;;;;;5034999;28;19924;-45
2022/08/02 01:54:33;;;;;;;;;;;11.90;99.90;;;;;;5049510;28;19917;-47
2022/08/02 01:57:01;;;;;;;;;;;11.80;99.90;;;;;;5050360;28;19924;-45
2022/08/02 01:59:28;;;;;;;;;;;11.80;99.90;;;;;;5050155;28;19999;-45
2022/08/02 02:01:54;;;;;;;;;;;11.80;99.90;;;;;;5050666;28;19927;-46
2022/08/02 02:04:20;;;;;;;;;;;11.80;99.90;;;;;;5049535;28;19924;-47
2022/08/02 02:06:46;;;;;;;;;;;11.80;99.90;;;;;;5050458;28;20009;-47
2022/08/02 02:09:14;;;;;;;;;;;11.80;99.90;;;;;;5049724;28;19956;-47
2022/08/02 02:11:41;;;;;;;;;;;11.80;99.90;;;;;;5048430;28;19923;-49
2022/08/02 02:14:06;;;;;;;;;;;11.70;99.90;;;;;;5049623;28;19920;-45
2022/08/02 02:16:33;;;;;;;;;;;11.70;99.90;;;;;;5050235;28;19921;-45
2022/08/02 02:19:00;;;;;;;;;;;11.70;99.90;;;;;;5050137;28;19917;-46
2022/08/02 02:21:26;;;;;;;;;;;11.70;99.90;;;;;;5050103;28;19923;-46
2022/08/02 02:23:51;;;;;;;;;;;11.70;99.90;;;;;;5049501;28;19916;-47
2022/08/02 02:26:17;;;;;;;;;;;11.70;99.90;;;;;;5050264;28;20385;-46
2022/08/02 02:28:45;;;;;;;;;;;11.70;99.90;;;;;;5051633;28;20007;-46
2022/08/02 02:31:12;;;;;;;;;;;11.70;99.90;;;;;;5054061;28;19999;-46
2022/08/02 02:33:59;;;;;;;;;;;11.70;99.90;;;;;;5054087;28;20362;-46
2022/08/02 02:36:27;;;;;;;;;;;11.70;99.90;;;;;;5053401;28;19925;-47
2022/08/02 02:38:54;;;;;;;;;;;11.70;99.90;;;;;;5054561;28;19971;-46
2022/08/02 02:41:20;;;;;;;;;;;11.70;99.90;;;;;;5053644;28;20388;-46
2022/08/02 02:43:45;;;;;;;;;;;11.80;99.90;;;;;;5054086;28;19917;-46
2022/08/02 02:46:11;;;;;;;;;;;11.80;99.90;;;;;;5053208;28;20366;-46
2022/08/02 02:48:38;;;;;;;;;;;11.80;99.90;;;;;;5053413;28;19962;-46
2022/08/02 02:51:04;;;;;;;;;;;11.80;99.90;;;;;;5053682;28;19924;-46
2022/08/02 02:53:30;;;;;;;;;;;11.80;99.90;;;;;;5053780;28;19916;-46
2022/08/02 02:55:56;;;;;;;;;;;11.80;99.90;;;;;;5051948;28;19940;-49
2022/08/02 02:58:21;;;;;;;;;;;11.80;99.90;;;;;;5053641;28;19970;-47
2022/08/02 03:03:32;;;;;;;;;;;11.80;99.90;;;;;;5053249;28;19920;-46
2022/08/02 03:05:58;;;;;;;;;;;11.70;99.90;;;;;;5053072;28;19920;-46
2022/08/02 03:08:23;;;;;;;;;;;11.80;99.90;;;;;;5053494;28;20347;-45
2022/08/02 03:10:49;;;;;;;;;;;11.80;99.90;;;;;;5053578;28;19923;-46
2022/08/02 03:13:15;;;;;;;;;;;11.80;99.90;;;;;;5052449;28;19924;-48
2022/08/02 03:15:41;;;;;;;;;;;11.80;99.90;;;;;;5053077;28;19940;-46
2022/08/02 03:18:07;;;;;;;;;;;11.70;99.90;;;;;;5053178;28;19959;-47
2022/08/02 03:20:33;;;;;;;;;;;11.70;99.90;;;;;;5053419;28;19917;-46
2022/08/02 03:22:58;;;;;;;;;;;11.70;99.90;;;;;;5052787;28;20409;-47
2022/08/02 03:25:24;;;;;;;;;;;11.60;99.90;;;;;;5053008;28;19961;-46
2022/08/02 03:27:50;;;;;;;;;;;11.60;99.90;;;;;;5052236;28;19923;-46
2022/08/02 03:30:15;;;;;;;;;;;11.70;99.90;;;;;;5052741;28;20461;-45
2022/08/02 03:32:42;;;;;;;;;;;11.70;99.90;;;;;;5034267;28;19921;-45
2022/08/02 03:35:09;;;;;;;;;;;11.70;99.90;;;;;;5052903;28;20301;-47
2022/08/02 03:37:35;;;;;;;;;;;11.70;99.90;;;;;;5052830;28;19974;-46
2022/08/02 03:40:03;;;;;;;;;;;11.70;99.90;;;;;;5052009;28;19923;-45
2022/08/02 03:42:28;;;;;;;;;;;11.80;99.90;;;;;;5052648;28;20309;-47
2022/08/02 03:44:54;;;;;;;;;;;11.80;99.90;;;;;;5051926;28;19917;-45
2022/08/02 03:47:20;;;;;;;;;;;11.80;99.90;;;;;;5052206;28;19920;-45
2022/08/02 03:49:46;;;;;;;;;;;11.80;99.90;;;;;;5052602;28;20665;-46
2022/08/02 03:52:12;;;;;;;;;;;11.80;99.90;;;;;;5052465;28;19964;-46
2022/08/02 03:54:37;;;;;;;;;;;11.80;99.90;;;;;;5051988;28;19948;-45
2022/08/02 03:57:06;;;;;;;;;;;11.80;99.90;;;;;;5052431;28;19924;-47
2022/08/02 03:59:45;;;;;;;;;;;11.80;99.90;;;;;;5050577;28;19920;-46
2022/08/02 04:02:11;;;;;;;;;;;11.90;99.90;;;;;;5052687;28;19917;-45
2022/08/02 04:04:36;;;;;;;;;;;11.80;99.90;;;;;;5051686;28;20346;-46
2022/08/02 04:07:02;;;;;;;;;;;11.80;99.90;;;;;;5052666;28;19917;-46
2022/08/02 04:09:28;;;;;;;;;;;11.80;99.90;;;;;;5050476;28;20401;-46
2022/08/02 04:11:53;;;;;;;;;;;11.80;99.90;;;;;;5052671;28;19921;-45
2022/08/02 04:14:19;;;;;;;;;;;11.80;99.90;;;;;;5051269;28;19974;-45
2022/08/02 04:16:51;;;;;;;;;;;11.80;99.90;;;;;;5051592;28;19927;-46
2022/08/02 04:19:35;;;;;;;;;;;11.80;99.90;;;;;;5035633;28;21055;-46
2022/08/02 04:22:04;;;;;;;;;;;11.80;99.90;;;;;;5041339;28;19916;-46
2022/08/02 04:24:33;;;;;;;;;;;11.90;99.90;;;;;;5051947;28;20327;-46
2022/08/02 04:26:59;;;;;;;;;;;11.90;99.90;;;;;;5051944;28;20487;-45
2022/08/02 04:29:25;;;;;;;;;;;11.90;99.90;;;;;;5052603;28;20033;-47
2022/08/02 04:31:51;;;;;;;;;;;11.90;99.90;;;;;;5052349;28;19963;-46
2022/08/02 04:34:16;;;;;;;;;;;11.90;99.90;;;;;;5052167;28;20064;-45
2022/08/02 04:36:42;;;;;;;;;;;11.80;99.90;;;;;;5051593;28;20461;-46
2022/08/02 04:39:07;;;;;;;;;;;11.80;99.90;;;;;;5051954;28;20015;-45
2022/08/02 04:41:51;;;;;;;;;;;11.80;99.90;;;;;;5051888;28;19970;-46
2022/08/02 04:44:17;;;;;;;;;;;11.80;99.90;;;;;;5051555;28;20400;-45
2022/08/02 04:46:43;;;;;;;;;;;11.90;99.90;;;;;;5051456;28;19916;-45
2022/08/02 04:49:08;;;;;;;;;;;11.90;99.90;;;;;;5051774;28;19916;-45
2022/08/02 04:51:35;;;;;;;;;;;12.00;99.90;;;;;;5051213;28;20011;-46
2022/08/02 04:54:01;;;;;;;;;;;12.00;99.90;;;;;;5050729;28;19920;-46
2022/08/02 04:56:26;;;;;;;;;;;12.10;99.90;;;;;;5051570;28;19927;-45
2022/08/02 04:58:52;;;;;;;;;;;12.10;99.90;;;;;;5050778;28;20384;-45
2022/08/02 05:01:17;;;;;;;;;;;12.20;99.90;;;;;;5051233;28;19921;-46
2022/08/02 05:03:43;;;;;;;;;;;12.20;99.90;;;;;;5050562;28;19920;-46
2022/08/02 05:06:08;;;;;;;;;;;12.30;99.90;;;;;;5050905;28;19970;-46
2022/08/02 05:08:34;;;;;;;;;;;12.30;99.90;;;;;;5050427;28;20393;-48
2022/08/02 05:10:59;;;;;;;;;;;12.40;99.90;;;;;;5051462;28;19916;-46
2022/08/02 05:13:25;;;;;;;;;;;12.40;99.90;;;;;;5050302;28;19999;-48
2022/08/02 05:15:50;;;;;;;;;;;12.50;99.90;;;;;;5051102;28;19924;-45
2022/08/02 05:18:16;;;;;;;;;;;12.60;99.90;;;;;;5050579;28;19917;-46
2022/08/02 05:20:41;;;;;;;;;;;12.60;99.90;;;;;;5051306;28;19917;-46
2022/08/02 05:23:07;;;;;;;;;;;12.70;99.90;;;;;;5050395;28;19917;-45
2022/08/02 05:25:32;;;;;;;;;;;12.80;99.90;;;;;;5050851;28;20294;-46
2022/08/02 05:27:58;;;;;;;;;;;12.80;99.90;;;;;;5050975;28;20008;-45
2022/08/02 05:30:23;;;;;;;;;;;12.90;99.90;;;;;;5050771;28;20348;-46
2022/08/02 05:32:51;;;;;;;;;;;13.10;99.90;;;;;;5050543;28;19924;-46
2022/08/02 05:35:20;;;;;;;;;;;13.20;99.90;;;;;;5050585;28;20042;-45
2022/08/02 05:37:46;;;;;;;;;;;13.30;99.90;;;;;;5050753;28;20040;-46
2022/08/02 05:40:12;;;;;;;;;;;13.40;99.90;;;;;;5050542;28;19916;-46
2022/08/02 05:42:37;;;;;;;;;;;13.50;99.90;;;;;;5050324;28;19916;-46
2022/08/02 05:45:03;;;;;;;;;;;13.60;99.90;;;;;;5049566;28;19920;-46
2022/08/02 05:47:29;;;;;;;;;;;13.70;99.90;;;;;;5049723;28;19920;-48
2022/08/02 05:49:54;;;;;;;;;;;13.90;99.90;;;;;;5049671;28;19916;-46
2022/08/02 05:52:23;;;;;;;;;;;14.00;99.90;;;;;;5050442;28;19932;-46
2022/08/02 05:54:51;;;;;;;;;;;14.10;99.90;;;;;;5050493;28;19966;-46
2022/08/02 05:57:40;;;;;;;;;;;14.20;99.90;;;;;;5049319;28;20297;-46
2022/08/02 06:00:09;;;;;;;;;;;14.40;99.90;;;;;;5044713;28;19916;-46
2022/08/02 06:02:41;;;;;;;;;;;14.50;99.90;;;;;;5049880;28;20337;-46
2022/08/02 06:05:10;;;;;;;;;;;14.70;99.90;;;;;;5050320;28;19917;-46
2022/08/02 06:07:35;;;;;;;;;;;14.80;99.90;;;;;;5050310;28;20007;-46
2022/08/02 06:10:04;;;;;;;;;;;15.00;99.90;;;;;;5050344;28;20374;-46
2022/08/02 06:12:31;;;;;;;;;;;15.10;99.90;;;;;;5050127;28;19917;-46
2022/08/02 06:14:58;;;;;;;;;;;15.20;99.90;;;;;;5049381;28;19970;-46
2022/08/02 06:17:23;;;;;;;;;;;15.30;99.90;;;;;;5050436;28;19924;-46
2022/08/02 06:19:49;;;;;;;;;;;15.40;99.90;;;;;;5049732;28;19917;-46
2022/08/02 06:22:15;;;;;;;;;;;15.60;99.90;;;;;;5050418;28;19996;-46
2022/08/02 06:24:44;;;;;;;;;;;15.70;99.90;;;;;;5049415;28;19920;-46
2022/08/02 06:27:13;;;;;;;;;;;15.80;99.90;;;;;;5048817;28;19975;-48
2022/08/02 06:29:39;;;;;;;;;;;16.00;99.90;;;;;;5050004;28;19936;-47
2022/08/02 06:32:06;;;;;;;;;;;16.10;99.90;;;;;;5050159;28;20297;-47
2022/08/02 06:34:34;;;;;;;;;;;16.20;99.90;;;;;;5049912;28;19926;-47
2022/08/02 06:37:06;;;;;;;;;;;16.30;99.90;;;;;;5048933;28;19928;-47
2022/08/02 06:39:42;;;;;;;;;;;16.40;99.90;;;;;;5049171;28;19951;-46
2022/08/02 06:42:10;;;;;;;;;;;16.60;99.90;;;;;;5048562;28;20019;-46
2022/08/02 06:44:37;;;;;;;;;;;16.80;99.90;;;;;;5049244;28;19928;-47
2022/08/02 06:47:03;;;;;;;;;;;16.90;99.90;;;;;;5048485;28;19996;-46
2022/08/02 06:49:28;;;;;;;;;;;17.00;99.90;;;;;;5049911;28;20012;-45
2022/08/02 06:51:54;;;;;;;;;;;17.10;99.90;;;;;;5050107;28;19916;-46
2022/08/02 06:54:20;;;;;;;;;;;17.30;99.90;;;;;;5049565;28;20385;-46
2022/08/02 06:56:46;;;;;;;;;;;17.30;99.90;;;;;;5048732;28;19921;-50
2022/08/02 06:59:12;;;;;;;;;;;17.40;99.90;;;;;;5049567;28;20446;-47
2022/08/02 07:01:37;;;;;;;;;;;17.50;99.90;;;;;;5049215;28;20400;-46
2022/08/02 07:04:03;;;;;;;;;;;17.60;99.90;;;;;;5049086;28;19921;-46
2022/08/02 07:06:29;;;;;;;;;;;17.60;99.90;;;;;;5049964;28;20388;-46
2022/08/02 07:08:54;;;;;;;;;;;17.70;99.90;;;;;;5049902;28;19963;-47
2022/08/02 07:11:20;;;;;;;;;;;17.80;99.90;;;;;;5048340;28;19998;-46
2022/08/02 07:13:45;;;;;;;;;;;17.80;99.90;;;;;;5037164;28;20545;-47
2022/08/02 07:16:11;;;;;;;;;;;17.90;99.90;;;;;;5060170;28;20161;-45
2022/08/02 07:18:36;;;;;;;;;;;18.10;99.90;;;;;;5062947;28;19920;-48
2022/08/02 07:21:04;;;;;;;;;;;18.20;99.90;;;;;;5067719;28;20373;-47
2022/08/02 07:23:30;;;;;;;;;;;18.40;99.90;;;;;;5057954;28;19924;-46
2022/08/02 07:25:56;;;;;;;;;;;18.50;99.90;;;;;;5062773;28;19916;-45
2022/08/02 07:28:21;;;;;;;;;;;18.60;99.90;;;;;;5061774;28;20009;-48
2022/08/02 07:30:47;;;;;;;;;;;18.80;99.90;;;;;;5063587;28;19936;-47
2022/08/02 07:33:12;;;;;;;;;;;18.90;99.90;;;;;;5065113;28;19916;-50
2022/08/02 07:35:38;;;;;;;;;;;19.10;99.90;;;;;;5063031;28;20025;-47
2022/08/02 07:38:03;;;;;;;;;;;19.20;99.90;;;;;;5064368;28;19931;-49
2022/08/02 07:40:29;;;;;;;;;;;19.20;99.90;;;;;;5064535;28;20054;-48
2022/08/02 07:42:55;;;;;;;;;;;19.20;99.90;;;;;;5064036;28;19920;-48
2022/08/02 07:45:21;;;;;;;;;;;19.20;99.90;;;;;;5065480;28;20461;-47
2022/08/02 07:47:47;;;;;;;;;;;19.20;99.90;;;;;;5061908;28;20007;-49
2022/08/02 07:50:14;;;;;;;;;;;19.30;99.90;;;;;;5059677;28;20274;-47
2022/08/02 07:52:40;;;;;;;;;;;19.40;99.90;;;;;;5060724;28;19956;-51
2022/08/02 07:55:06;;;;;;;;;;;19.40;99.90;;;;;;5065084;28;19916;-47
2022/08/02 07:57:32;;;;;;;;;;;19.50;99.90;;;;;;5057434;28;19982;-46
2022/08/02 07:59:57;;;;;;;;;;;19.60;99.90;;;;;;5064397;28;19920;-48
2022/08/02 08:02:26;;;;;;;;;;;19.70;99.90;;;;;;5062558;28;19952;-49
2022/08/02 08:04:52;;;;;;;;;;;19.90;99.90;;;;;;5058005;28;19925;-47
2022/08/02 08:07:17;;;;;;;;;;;20.00;99.90;;;;;;5061672;28;19973;-50
2022/08/02 08:09:44;;;;;;;;;;;20.10;99.90;;;;;;5063757;28;19920;-47
2022/08/02 08:12:10;;;;;;;;;;;20.30;99.90;;;;;;5060815;28;20397;-48
2022/08/02 08:14:36;;;;;;;;;;;20.40;99.90;;;;;;5062319;28;19970;-49
2022/08/02 08:17:02;;;;;;;;;;;20.50;99.90;;;;;;5062116;28;19920;-49
2022/08/02 08:19:27;;;;;;;;;;;20.60;99.20;;;;;;5058828;28;19916;-50
2022/08/02 08:21:53;;;;;;;;;;;20.60;99.40;;;;;;5060082;28;20524;-50
2022/08/02 08:24:18;;;;;;;;;;;20.70;98.90;;;;;;5059008;28;19966;-49
2022/08/02 08:26:44;;;;;;;;;;;20.80;98.60;;;;;;5059626;28;19960;-48
2022/08/02 08:29:09;;;;;;;;;;;20.90;98.20;;;;;;5054938;28;19920;-48
2022/08/02 08:31:35;;;;;;;;;;;21.00;98.40;;;;;;5059956;28;19966;-45
2022/08/02 08:34:01;;;;;;;;;;;21.20;98.30;;;;;;5066410;28;19920;-46
2022/08/02 08:36:26;;;;;;;;;;;21.20;96.80;;;;;;5056568;28;20207;-47
2022/08/02 08:38:52;;;;;;;;;;;21.30;97.60;;;;;;5055290;28;20019;-48
2022/08/02 08:41:18;;;;;;;;;;;21.40;96.40;;;;;;5055436;28;19966;-47
2022/08/02 08:43:43;;;;;;;;;;;21.50;96.50;;;;;;5053897;28;20497;-47
2022/08/02 08:46:35;;;;;;;;;;;21.70;96.80;;;;;;5059442;28;19939;-50
2022/08/02 08:49:21;;;;;;;;;;;21.80;96.50;;;;;;5057465;28;20357;-49
2022/08/02 08:51:48;;;;;;;;;;;21.90;95.10;;;;;;5049374;28;19999;-49
2022/08/02 08:54:15;;;;;;;;;;;21.90;93.90;;;;;;5058474;28;20335;-49
2022/08/02 08:56:41;;;;;;;;;;;22.00;93.10;;;;;;5054931;28;20795;-47
2022/08/02 08:59:06;;;;;;;;;;;22.00;93.30;;;;;;5060382;28;19973;-50
2022/08/02 09:01:33;;;;;;;;;;;22.10;92.90;;;;;;5055521;28;19920;-46
2022/08/02 09:03:58;;;;;;;;;;;22.10;92.90;;;;;;5060709;28;19924;-50
2022/08/02 09:06:24;;;;;;;;;;;22.20;93.60;;;;;;5051227;28;19921;-49
2022/08/02 09:08:49;;;;;;;;;;;22.30;93.30;;;;;;5047619;28;19916;-49
2022/08/02 09:11:16;;;;;;;;;;;22.40;92.80;;;;;;5050478;28;19928;-50
2022/08/02 09:13:55;;;;;;;;;;;22.50;92.70;;;;;;5054649;28;19920;-52
2022/08/02 09:16:34;;;;;;;;;;;22.50;92.80;;;;;;5051808;28;20019;-49
2022/08/02 09:19:19;;;;;;;;;;;22.60;92.00;;;;;;5048199;28;19944;-47
2022/08/02 09:21:44;;;;;;;;;;;22.70;92.60;;;;;;5046292;28;20286;-48
2022/08/02 09:24:17;;;;;;;;;;;22.80;92.90;;;;;;5045805;28;20524;-46
2022/08/02 09:26:43;;;;;;;;;;;22.90;92.60;;;;;;5054643;28;19917;-49
2022/08/02 09:29:08;;;;;;;;;;;23.10;92.60;;;;;;5053190;28;19920;-49
2022/08/02 09:31:34;;;;;;;;;;;23.20;93.10;;;;;;5051233;28;19917;-49
2022/08/02 09:33:59;;;;;;;;;;;23.30;91.20;;;;;;5054674;28;20282;-48
2022/08/02 09:36:27;;;;;;;;;;;23.30;90.80;;;;;;5047631;28;19983;-49
2022/08/02 09:38:55;;;;;;;;;;;23.40;90.70;;;;;;5052777;28;19924;-51
2022/08/02 09:41:22;;;;;;;;;;;23.50;91.60;;;;;;5053401;28;19923;-48
2022/08/02 09:43:48;;;;;;;;;;;23.50;91.60;;;;;;5053228;28;19917;-49
2022/08/02 09:46:14;;;;;;;;;;;23.60;88.90;;;;;;5054267;28;19931;-47
2022/08/02 09:48:52;;;;;;;;;;;23.70;91.30;;;;;;5050311;28;19923;-50
2022/08/02 09:51:19;;;;;;;;;;;23.70;90.90;;;;;;5051908;28;19927;-50
2022/08/02 09:53:45;;;;;;;;;;;23.80;90.90;;;;;;5051292;28;20095;-51
2022/08/02 09:56:11;;;;;;;;;;;23.90;89.90;;;;;;5052888;28;19924;-50
2022/08/02 09:58:38;;;;;;;;;;;24.00;90.60;;;;;;5053658;28;19917;-50
2022/08/02 10:01:04;;;;;;;;;;;24.00;90.30;;;;;;5050565;28;19991;-48
2022/08/02 10:03:30;;;;;;;;;;;24.00;89.80;;;;;;5051254;28;20008;-49
2022/08/02 10:05:57;;;;;;;;;;;24.00;90.20;;;;;;5050627;28;20281;-51
2022/08/02 10:08:23;;;;;;;;;;;24.00;90.50;;;;;;5051926;28;19917;-47
2022/08/02 10:10:59;;;;;;;;;;;24.10;90.60;;;;;;5048461;28;20275;-50
2022/08/02 10:13:29;;;;;;;;;;;24.10;91.10;;;;;;5053002;28;20300;-50
2022/08/02 10:15:55;;;;;;;;;;;24.20;90.90;;;;;;5049541;28;20387;-50
2022/08/02 10:18:21;;;;;;;;;;;24.20;90.50;;;;;;5049052;28;20286;-48
2022/08/02 10:20:47;;;;;;;;;;;24.20;90.90;;;;;;5050895;28;19924;-47
2022/08/02 10:23:14;;;;;;;;;;;24.30;91.10;;;;;;5053959;28;20015;-47
2022/08/02 10:25:41;;;;;;;;;;;24.30;91.10;;;;;;5047658;28;19923;-48
2022/08/02 10:28:07;;;;;;;;;;;24.40;92.60;;;;;;5047260;28;19924;-47
2022/08/02 10:30:36;;;;;;;;;;;24.50;92.30;;;;;;5052088;28;19924;-47
2022/08/02 10:33:02;;;;;;;;;;;24.60;92.00;;;;;;5054400;28;19923;-48
2022/08/02 10:35:31;;;;;;;;;;;24.60;92.10;;;;;;5052810;28;20019;-49
2022/08/02 10:37:59;;;;;;;;;;;24.70;92.00;;;;;;5054294;28;20549;-46
2022/08/02 10:40:40;;;;;;;;;;;24.70;93.50;;;;;;5050414;28;19927;-49
2022/08/02 10:43:06;;;;;;;;;;;24.80;92.50;;;;;;5052342;28;19932;-45
2022/08/02 10:45:31;;;;;;;;;;;24.90;93.20;;;;;;5046785;28;19917;-49
2022/08/02 10:48:00;;;;;;;;;;;25.00;92.70;;;;;;5048280;28;19920;-48
2022/08/02 10:50:43;;;;;;;;;;;25.00;92.10;;;;;;5052980;28;19921;-48
2022/08/02 10:53:28;;;;;;;;;;;25.10;92.10;;;;;;5052483;28;19920;-50
2022/08/02 10:55:54;;;;;;;;;;;25.10;92.00;;;;;;5052148;28;19920;-50
2022/08/02 10:58:23;;;;;;;;;;;25.20;91.90;;;;;;5049924;28;20451;-48
2022/08/02 11:00:49;;;;;;;;;;;25.20;91.10;;;;;;5047930;28;19917;-47
2022/08/02 11:03:27;;;;;;;;;;;25.20;91.10;;;;;;5050120;28;20285;-48
2022/08/02 11:06:02;;;;;;;;;;;25.40;90.90;;;;;;5046254;28;20015;-48
2022/08/02 11:08:27;;;;;;;;;;;25.30;90.90;;;;;;5050972;28;19917;-48
2022/08/02 11:10:57;;;;;;;;;;;25.40;91.60;;;;;;5053835;28;19993;-47
2022/08/02 11:13:25;;;;;;;;;;;25.40;91.80;;;;;;5051209;28;19916;-49
2022/08/02 11:15:50;;;;;;;;;;;25.50;90.90;;;;;;5046384;28;20031;-47
2022/08/02 11:18:16;;;;;;;;;;;25.50;91.20;;;;;;5055720;28;20026;-49
2022/08/02 11:20:42;;;;;;;;;;;25.60;91.30;;;;;;5057167;28;19963;-50
2022/08/02 11:23:26;;;;;;;;;;;25.50;90.80;;;;;;5055771;28;19974;-48
2022/08/02 11:25:51;;;;;;;;;;;25.60;89.40;;;;;;5057859;28;19927;-50
2022/08/02 11:28:17;;;;;;;;;;;25.50;90.10;;;;;;5060656;28;20420;-48
2022/08/02 11:30:42;;;;;;;;;;;25.60;90.10;;;;;;5059303;28;20370;-51
2022/08/02 11:33:07;;;;;;;;;;;25.60;90.00;;;;;;5050039;28;19924;-49
2022/08/02 11:35:37;;;;;;;;;;;25.60;89.00;;;;;;5051224;28;19965;-51
2022/08/02 11:38:16;;;;;;;;;;;25.70;89.30;;;;;;5053447;28;19921;-51
2022/08/02 11:40:42;;;;;;;;;;;25.70;88.30;;;;;;5050115;28;20404;-49
2022/08/02 11:43:26;;;;;;;;;;;25.80;87.10;;;;;;5040804;28;19925;-47
2022/08/02 11:45:52;;;;;;;;;;;25.80;88.40;;;;;;5044137;28;20060;-47
2022/08/02 11:48:37;;;;;;;;;;;25.80;86.90;;;;;;5044617;28;19929;-47
2022/08/02 11:51:04;;;;;;;;;;;25.80;86.80;;;;;;5046559;28;19952;-49
2022/08/02 11:53:33;;;;;;;;;;;25.80;87.00;;;;;;5042709;28;20259;-49
2022/08/02 11:55:58;;;;;;;;;;;25.80;87.00;;;;;;5052947;28;20267;-50
2022/08/02 11:58:23;;;;;;;;;;;25.80;86.40;;;;;;5049492;28;19935;-48
2022/08/02 12:00:49;;;;;;;;;;;25.80;85.30;;;;;;5047397;28;19921;-50
2022/08/02 12:03:14;;;;;;;;;;;25.90;85.70;;;;;;5041283;28;19935;-51
2022/08/02 12:05:47;;;;;;;;;;;26.00;86.10;;;;;;5047272;28;20397;-48
2022/08/02 12:08:13;;;;;;;;;;;25.90;84.90;;;;;;5044512;28;19920;-51
2022/08/02 12:10:45;;;;;;;;;;;25.90;85.30;;;;;;5042977;28;20624;-47
2022/08/02 12:13:10;;;;;;;;;;;25.90;86.40;;;;;;5044653;28;19916;-48
2022/08/02 12:15:41;;;;;;;;;;;25.90;85.00;;;;;;5042597;28;19999;-50
2022/08/02 12:20:54;;;;;;;;;;;26.10;83.70;;;;;;5048742;28;19921;-49
2022/08/02 12:23:19;;;;;;;;;;;26.20;83.10;;;;;;5046131;28;19916;-46
2022/08/02 12:25:45;;;;;;;;;;;26.20;82.90;;;;;;5049362;28;20682;-47
2022/08/02 12:28:13;;;;;;;;;;;26.20;83.40;;;;;;5046421;28;20354;-49
2022/08/02 12:30:55;;;;;;;;;;;26.30;84.40;;;;;;5046497;28;19917;-48
2022/08/02 12:33:21;;;;;;;;;;;26.40;86.60;;;;;;5043351;28;19920;-49
2022/08/02 12:35:46;;;;;;;;;;;26.60;85.60;;;;;;5042995;28;19924;-50
2022/08/02 12:38:12;;;;;;;;;;;26.70;86.40;;;;;;5058746;28;19928;-50
2022/08/02 12:40:38;;;;;;;;;;;26.80;83.70;;;;;;5039780;28;19917;-48
2022/08/02 12:43:04;;;;;;;;;;;26.90;84.00;;;;;;5045442;28;19932;-49
2022/08/02 12:45:31;;;;;;;;;;;27.00;87.40;;;;;;5029642;28;19924;-47
2022/08/02 12:47:58;;;;;;;;;;;27.10;85.30;;;;;;5028298;28;19917;-49
2022/08/02 12:50:28;;;;;;;;;;;27.00;82.80;;;;;;5027794;28;19925;-48
2022/08/02 12:53:02;;;;;;;;;;;26.90;84.40;;;;;;5032673;28;19970;-52
2022/08/02 12:55:28;;;;;;;;;;;26.90;83.70;;;;;;5043944;28;20344;-48
2022/08/02 12:57:55;;;;;;;;;;;26.90;83.30;;;;;;5038933;28;19925;-48
2022/08/02 13:00:25;;;;;;;;;;;26.80;83.20;;;;;;5032014;28;20286;-49
2022/08/02 13:02:51;;;;;;;;;;;26.80;83.40;;;;;;5045703;28;20166;-50
2022/08/02 13:05:16;;;;;;;;;;;26.80;82.80;;;;;;5035219;28;20332;-48
2022/08/02 13:07:42;;;;;;;;;;;26.70;87.00;;;;;;5041027;28;20417;-50
2022/08/02 13:10:07;;;;;;;;;;;26.80;86.40;;;;;;5037880;28;19917;-47
2022/08/02 13:12:33;;;;;;;;;;;26.90;87.70;;;;;;5030674;28;19921;-49
2022/08/02 13:14:58;;;;;;;;;;;26.90;85.10;;;;;;5026640;28;20286;-50
2022/08/02 13:17:24;;;;;;;;;;;26.90;84.50;;;;;;5043529;28;20348;-48
2022/08/02 13:19:49;;;;;;;;;;;26.90;81.00;;;;;;5037815;28;19916;-48
2022/08/02 13:22:15;;;;;;;;;;;26.80;83.00;;;;;;5046012;28;19947;-51
2022/08/02 13:24:40;;;;;;;;;;;26.70;84.40;;;;;;5045809;28;20274;-48
2022/08/02 13:27:06;;;;;;;;;;;26.70;84.00;;;;;;5045158;28;19924;-49
2022/08/02 13:29:32;;;;;;;;;;;26.70;85.00;;;;;;5030559;28;19921;-48
2022/08/02 13:31:58;;;;;;;;;;;26.70;83.90;;;;;;5036314;28;19917;-47
2022/08/02 13:34:24;;;;;;;;;;;26.50;83.80;;;;;;5029130;28;19956;-49
2022/08/02 13:36:49;;;;;;;;;;;26.40;83.30;;;;;;5043287;28;20413;-48
2022/08/02 13:39:15;;;;;;;;;;;26.30;85.10;;;;;;5041482;28;19950;-46
2022/08/02 13:41:40;;;;;;;;;;;26.20;84.50;;;;;;5034633;28;19940;-48
2022/08/02 13:44:06;;;;;;;;;;;26.20;85.60;;;;;;5044835;28;19924;-48
2022/08/02 13:46:34;;;;;;;;;;;26.20;86.10;;;;;;5037189;28;20319;-47
2022/08/02 13:48:59;;;;;;;;;;;26.10;85.30;;;;;;5037496;28;19917;-48
2022/08/02 13:51:25;;;;;;;;;;;26.10;86.50;;;;;;5030151;28;20505;-49
2022/08/02 13:53:50;;;;;;;;;;;26.20;86.50;;;;;;5030893;28;19971;-46
2022/08/02 13:56:16;;;;;;;;;;;26.20;86.60;;;;;;5044476;28;19917;-47
2022/08/02 13:58:41;;;;;;;;;;;26.20;85.60;;;;;;5033511;28;19917;-48
2022/08/02 14:01:07;;;;;;;;;;;26.30;85.50;;;;;;5041481;28;19916;-50
2022/08/02 14:03:32;;;;;;;;;;;26.40;86.80;;;;;;5033438;28;19970;-47
2022/08/02 14:05:58;;;;;;;;;;;26.40;85.90;;;;;;5038214;28;20001;-47
2022/08/02 14:08:23;;;;;;;;;;;26.50;86.60;;;;;;5045253;28;20303;-47
2022/08/02 14:10:49;;;;;;;;;;;26.60;84.70;;;;;;5045021;28;19917;-48
2022/08/02 14:13:15;;;;;;;;;;;26.50;85.40;;;;;;5034246;28;20374;-48
2022/08/02 14:15:41;;;;;;;;;;;26.50;86.60;;;;;;5036365;28;20370;-47
2022/08/02 14:18:07;;;;;;;;;;;26.50;84.20;;;;;;5034006;28;19921;-48
2022/08/02 14:20:32;;;;;;;;;;;26.40;85.10;;;;;;5032716;28;20338;-49
2022/08/02 14:22:58;;;;;;;;;;;26.40;86.50;;;;;;5042134;28;20212;-48
2022/08/02 14:25:24;;;;;;;;;;;26.30;84.40;;;;;;5047260;28;19934;-48